Kezdőlap
METAR-TAF:

METAR-TAF

Repülőterek :

Kalmar, Svédország

földrajzi szélesség: 56-44N, földrajzi hosszúság: 016-18E, magasság: 16 m

Jelenlegi meteorológiai megfigyelések

A jelentés 30 perccel ezelõtt készült, 21:50 UTC
Szélcsend
Hőmérséklet 14°C
Páratartalom 100%
Légköri nyomás 1016 hPa
Látótávolság: 5000 m

METAR: ESMQ 192150Z AUTO 00000KT 5000 NCD 14/14 Q1016

Idő: 00:20 (22:20 UTC)

Előrejelzés

A jelentés 10 órával és 50 perccel ezelõtt készült, 11:30 UTC
Az előrejelzés 19-én 12 óra UTC és 19-én 14 óra UTC között érvényes
Nyugati szél 7 kt
Látótávolság 10 km, vagy több
felhőtlen 1500 m magasságban, és nincs gomolyfelhõ

TAF: ESMQ 191130Z 1912/1914 27007KT CAVOK

Meteorológiai megfigyelések és előrejelzések több, mint 4000 repülőtéren (METAR és TAF jelentéseket).

A térképen piros és sárga pontok jelzik az elérhető meteorológiai állomásokat.

Mozgassa az egeret a pont fölött, hogy megjelenjen az állomás neve.

Azután kattintson az időjárási megfigyelések és előrejelzések megtekintéséhez.

A térkép megváltoztatása: kattintson a fekete keresztel jelölt zöld gombra ráközelítéshez, a vonallal jelölt zöld gombra távolításhoz, vagy a zöld nyilakra a szomszédos térképek eléréséhez.


METAR-TAF: